Terminal Aerodrome Forecast
Issued by NWS Shreveport, LA

Home | Current Version | Previous Version | Text Only | Print | Product List | Glossary On
Versions: 1 2 3 4 5 6 7 8 9 10 11 12 13 14
000
FTUS44 KSHV 042320
TAFMLU
TAF
KMLU 042320Z 0500/0524 24007KT 6SM RA BR FEW070 BKN100 OVC110
     FM050300 21004KT P6SM BKN080
      TEMPO 0508/0512 3SM BR BKN020
     FM051200 25006KT P6SM VCTS BKN030CB=

USA.gov is the U.S. government's official web portal to all federal, state and local government web resources and services.